createdAt,value
2022-09-20T00:02:22.709Z,8.8
2022-09-20T00:07:24.838Z,8.9
2022-09-20T00:12:26.900Z,8.9
2022-09-20T00:17:29.182Z,8.8
2022-09-20T00:22:31.185Z,8.8
2022-09-20T00:27:33.338Z,8.7
2022-09-20T00:32:35.471Z,8.7
2022-09-20T00:37:37.538Z,8.7
2022-09-20T00:42:39.587Z,8.7
2022-09-20T00:47:42.301Z,8.6
2022-09-20T00:52:44.388Z,8.5
2022-09-20T00:57:46.442Z,8.5
2022-09-20T01:02:49.385Z,8.6
2022-09-20T01:07:51.684Z,8.5
2022-09-20T01:12:53.870Z,8.7
2022-09-20T01:17:56.340Z,8.7
2022-09-20T01:22:58.413Z,8.7
2022-09-20T01:28:00.633Z,8.8
2022-09-20T01:33:02.860Z,8.8
2022-09-20T01:38:05.148Z,8.8
2022-09-20T01:43:07.472Z,8.8
2022-09-20T01:48:09.820Z,8.8
2022-09-20T01:53:12.577Z,8.7
2022-09-20T01:58:14.669Z,8.7
2022-09-20T02:03:16.899Z,8.6
2022-09-20T02:08:19.056Z,8.5
2022-09-20T02:13:21.017Z,8.4
2022-09-20T02:18:23.767Z,8.4
2022-09-20T02:23:25.706Z,8.3
2022-09-20T02:28:27.837Z,8.3
2022-09-20T02:33:30.803Z,8.2
2022-09-20T02:38:32.775Z,8.2
2022-09-20T02:43:34.893Z,8.2
2022-09-20T02:48:37.767Z,8.1
2022-09-20T02:53:40.068Z,8
2022-09-20T02:58:42.201Z,8.1
2022-09-20T03:03:44.710Z,8.2
2022-09-20T03:08:46.932Z,8.1
2022-09-20T03:13:49.174Z,8.2
2022-09-20T03:18:51.364Z,8.3
2022-09-20T03:23:53.616Z,8.4
2022-09-20T03:28:55.745Z,8.5
2022-09-20T03:33:58.398Z,8.4
2022-09-20T03:39:00.705Z,8.4
2022-09-20T03:44:02.943Z,8.4
2022-09-20T03:49:06.005Z,8.4
2022-09-20T03:54:08.191Z,8.4
2022-09-20T03:59:10.510Z,8.5
2022-09-20T04:04:13.549Z,8.6
2022-09-20T04:09:15.806Z,8.5
2022-09-20T04:14:17.981Z,8.6
2022-09-20T04:19:20.110Z,8.6
2022-09-20T04:24:22.230Z,8.6
2022-09-20T04:29:24.400Z,8.6
2022-09-20T04:34:26.493Z,8.7
2022-09-20T04:39:28.814Z,8.7
2022-09-20T04:44:31.080Z,8.7
2022-09-20T04:49:33.191Z,8.9
2022-09-20T04:54:35.185Z,9
2022-09-20T04:59:37.489Z,9.2
2022-09-20T05:04:41.052Z,9.3
2022-09-20T05:09:43.123Z,9.3
2022-09-20T05:14:45.274Z,9.8
2022-09-20T05:19:47.557Z,10.4
2022-09-20T05:24:49.590Z,10.9
2022-09-20T05:29:51.617Z,11.4
2022-09-20T05:34:54.148Z,12.4
2022-09-20T05:39:56.238Z,12.3
2022-09-20T05:44:58.578Z,12.8
2022-09-20T05:50:01.228Z,13.1
2022-09-20T05:55:03.388Z,13
2022-09-20T06:00:05.568Z,13.5
2022-09-20T06:05:07.858Z,13.6
2022-09-20T06:10:09.847Z,13.8
2022-09-20T06:15:11.812Z,14.1
2022-09-20T06:25:14.489Z,15.2
2022-09-20T06:30:16.714Z,15.4
2022-09-20T06:35:19.619Z,16
2022-09-20T06:40:21.857Z,16
2022-09-20T06:45:24.088Z,16.5
2022-09-20T06:50:26.317Z,16.7
2022-09-20T07:00:31.342Z,18
2022-09-20T07:05:33.972Z,18.5
2022-09-20T07:10:36.200Z,18.4
2022-09-20T07:15:38.359Z,18.8
2022-09-20T07:20:41.145Z,19.5
2022-09-20T07:25:43.269Z,19.5
2022-09-20T07:30:45.272Z,19.8
2022-09-20T07:35:47.891Z,20.3
2022-09-20T07:40:49.997Z,20.2
2022-09-20T07:45:52.321Z,20.6
2022-09-20T07:50:55.220Z,19.4
2022-09-20T07:55:57.212Z,19.4
2022-09-20T08:00:59.488Z,19.6
2022-09-20T08:06:01.768Z,20.9
2022-09-20T08:11:04.324Z,20.1
2022-09-20T08:16:06.681Z,20.1
2022-09-20T08:21:08.964Z,21.5
2022-09-20T08:26:11.008Z,20.9
2022-09-20T08:31:13.058Z,22
2022-09-20T08:36:15.284Z,21.8
2022-09-20T08:41:17.288Z,23.4
2022-09-20T08:46:24.969Z,25.4
2022-09-20T08:51:27.102Z,25.2
2022-09-20T08:56:29.121Z,26
2022-09-20T09:01:31.223Z,26.1
2022-09-20T09:11:34.124Z,27.4
2022-09-20T09:16:38.076Z,29.3
2022-09-20T09:21:40.261Z,29.2
2022-09-20T09:26:42.535Z,28.6
2022-09-20T09:31:45.361Z,29.2
2022-09-20T09:36:47.797Z,29.1
2022-09-20T09:42:00.733Z,30.1
2022-09-20T09:47:03.175Z,30.8
2022-09-20T09:52:05.814Z,31.6
2022-09-20T09:57:07.994Z,31.6
2022-09-20T10:02:10.325Z,32.8
2022-09-20T10:07:12.530Z,33.1
2022-09-20T10:12:14.528Z,30.2
2022-09-20T10:17:16.798Z,26.6
2022-09-20T10:22:19.423Z,21.8
2022-09-20T10:27:21.584Z,21.7
2022-09-20T10:32:23.766Z,26.6
2022-09-20T10:37:26.303Z,29.5
2022-09-20T10:42:28.388Z,29.5
2022-09-20T10:47:30.950Z,29.3
2022-09-20T10:57:34.051Z,27.4
2022-09-20T11:02:36.376Z,23.4
2022-09-20T11:07:39.145Z,21.5
2022-09-20T11:12:41.271Z,20.5
2022-09-20T11:17:43.282Z,20.5
2022-09-20T11:22:45.637Z,20.8
2022-09-20T11:27:47.727Z,19.9
2022-09-20T11:37:50.427Z,23.1
2022-09-20T11:42:52.499Z,23.8
2022-09-20T11:47:57.564Z,22.4
2022-09-20T11:52:59.797Z,22.4
2022-09-20T11:58:01.996Z,24.7
2022-09-20T12:03:04.981Z,22.3
2022-09-20T12:08:07.390Z,22.2
2022-09-20T12:13:10.139Z,21.2
2022-09-20T12:18:12.452Z,23.7
2022-09-20T12:23:14.771Z,24.3
2022-09-20T12:28:16.933Z,21
2022-09-20T12:33:19.385Z,21.7
2022-09-20T12:38:21.583Z,22.9
2022-09-20T12:43:23.973Z,22.5
2022-09-20T12:48:25.973Z,21.2
2022-09-20T12:53:28.057Z,19.6
2022-09-20T12:58:30.269Z,18.7
2022-09-20T13:03:32.518Z,18.4
2022-09-20T13:08:34.828Z,18.2
2022-09-20T13:13:37.423Z,18.1
2022-09-20T13:18:40.132Z,17.9
2022-09-20T13:23:43.072Z,17.6
2022-09-20T13:28:45.132Z,17.6
2022-09-20T13:33:47.847Z,17.5
2022-09-20T13:38:50.445Z,18.4
2022-09-20T13:43:52.826Z,18.4
2022-09-20T13:48:55.117Z,19
2022-09-20T13:53:58.069Z,19.1
2022-09-20T13:59:00.121Z,19.1
2022-09-20T14:04:02.256Z,19.3
2022-09-20T14:09:12.593Z,18.9
2022-09-20T14:14:04.937Z,18.9
2022-09-20T14:19:07.520Z,18.1
2022-09-20T14:24:11.768Z,18.1
2022-09-20T14:34:14.247Z,17.5
2022-09-20T14:39:17.272Z,17
2022-09-20T14:44:19.564Z,16.9
2022-09-20T14:49:21.847Z,16.7
2022-09-20T14:54:24.502Z,17
2022-09-20T14:59:26.672Z,16.9
2022-09-20T15:04:29.011Z,17
2022-09-20T15:09:31.816Z,16.2
2022-09-20T15:14:39.360Z,16.1
2022-09-20T15:19:41.333Z,16.1
2022-09-20T15:24:43.917Z,15.6
2022-09-20T15:29:45.882Z,15.5
2022-09-20T15:34:47.825Z,15.3
2022-09-20T15:39:50.279Z,15
2022-09-20T15:44:52.249Z,14.9
2022-09-20T15:49:54.171Z,14.8
2022-09-20T15:54:56.683Z,14.7
2022-09-20T15:59:58.657Z,14.6
2022-09-20T16:05:00.708Z,14.5
2022-09-20T16:10:03.609Z,14.1
2022-09-20T16:15:05.730Z,14
2022-09-20T16:20:07.625Z,13.9
2022-09-20T16:25:09.526Z,13.9
2022-09-20T16:30:11.536Z,13.9
2022-09-20T16:35:13.682Z,13.8
2022-09-20T16:40:16.743Z,13.7
2022-09-20T16:45:18.821Z,13.8
2022-09-20T16:50:20.735Z,13.7
2022-09-20T16:55:23.903Z,13.7
2022-09-20T17:00:25.892Z,13.6
2022-09-20T17:05:27.801Z,13.5
2022-09-20T17:10:30.011Z,13.4
2022-09-20T17:15:32.151Z,13.3
2022-09-20T17:20:34.271Z,13
2022-09-20T17:25:36.358Z,12.9
2022-09-20T17:30:39.840Z,12.5
2022-09-20T17:35:42.174Z,12.5
2022-09-20T17:40:44.136Z,12.4
2022-09-20T17:45:46.310Z,12.3
2022-09-20T17:50:48.291Z,12.1
2022-09-20T18:00:51.223Z,11.9
2022-09-20T18:05:53.327Z,11.8
2022-09-20T18:10:55.445Z,11.7
2022-09-20T18:15:57.546Z,11.6
2022-09-20T18:21:00.889Z,11.5
2022-09-20T18:26:02.801Z,11.4
2022-09-20T18:31:07.277Z,11.2
2022-09-20T18:36:10.549Z,11.1
2022-09-20T18:41:12.425Z,11
2022-09-20T18:46:14.590Z,10.8
2022-09-20T18:51:17.325Z,10.6
2022-09-20T18:56:19.378Z,10.6
2022-09-20T19:01:22.186Z,10.4
2022-09-20T19:06:24.451Z,10.3
2022-09-20T19:11:26.566Z,10.3
2022-09-20T19:16:28.573Z,10.2
2022-09-20T19:21:30.843Z,10.1
2022-09-20T19:26:33.190Z,9.9
2022-09-20T19:31:35.916Z,9.9
2022-09-20T19:36:37.998Z,9.8
2022-09-20T19:41:40.201Z,9.8
2022-09-20T19:46:43.663Z,9.6
2022-09-20T19:51:45.778Z,9.6
2022-09-20T19:56:47.787Z,9.6
2022-09-20T20:01:49.873Z,9.6
2022-09-20T20:06:51.913Z,9.7
2022-09-20T20:11:55.328Z,9.8
2022-09-20T20:16:57.199Z,9.9
2022-09-20T20:21:59.159Z,10
2022-09-20T20:27:01.803Z,10.2
2022-09-20T20:32:04.006Z,10.2
2022-09-20T20:37:06.028Z,10.3
2022-09-20T20:42:08.105Z,10.4
2022-09-20T20:47:10.163Z,10.4
2022-09-20T20:52:13.130Z,10.4
2022-09-20T20:57:15.232Z,10.4
2022-09-20T21:02:17.437Z,10.4
2022-09-20T21:07:19.456Z,10.5
2022-09-20T21:12:22.077Z,10.6
2022-09-20T21:17:24.274Z,10.6
2022-09-20T21:22:26.184Z,10.7
2022-09-20T21:27:28.720Z,10.6
2022-09-20T21:32:30.741Z,10.6
2022-09-20T21:37:32.820Z,10.6
2022-09-20T21:42:34.987Z,10.6
2022-09-20T21:47:36.912Z,10.5
2022-09-20T21:52:38.809Z,10.4
2022-09-20T21:57:41.288Z,10.4
2022-09-20T22:02:43.990Z,10.4
2022-09-20T22:07:46.343Z,10.3
2022-09-20T22:12:48.569Z,10.3
2022-09-20T22:17:50.991Z,10.4
2022-09-20T22:22:52.881Z,10.4
2022-09-20T22:27:54.989Z,10.4
2022-09-20T22:32:59.654Z,10.4
2022-09-20T22:38:03.308Z,10.5
2022-09-20T22:43:05.296Z,10.5
2022-09-20T22:48:07.395Z,10.5
2022-09-20T22:53:09.276Z,10.5
2022-09-20T22:58:11.515Z,10.5
2022-09-20T23:03:13.433Z,10.5
2022-09-20T23:08:15.540Z,10.5
2022-09-20T23:13:17.704Z,10.5
2022-09-20T23:18:19.694Z,10.7
2022-09-20T23:23:21.660Z,10.6
2022-09-20T23:28:23.712Z,10.6
2022-09-20T23:33:25.681Z,10.6
2022-09-20T23:38:27.602Z,10.5
2022-09-20T23:43:29.996Z,10.3
2022-09-20T23:48:31.829Z,10.2
2022-09-20T23:53:33.767Z,10.3
2022-09-20T23:58:35.910Z,10.3
